Time;durP1;ratioP1;P1;durP2;ratioP2;P2;SDS_P1;SDS_P2;PMS_P1;PMS_P2;Temp;Humidity;BMP_temperature;BMP_pressure;BME280_temperature;BME280_humidity;BME280_pressure;Samples;Min_cycle;Max_cycle;Signal;HPM_P1;HPM_P2
2021/12/13 00:02:05;;;;;;;;;12.50;11.75;;;;;9.82;87.21;100758.38;5050686;28;8853;-79
2021/12/13 00:04:32;;;;;;;;;8.00;6.50;;;;;9.82;87.67;100747.72;5051797;28;8870;-78
2021/12/13 00:07:01;;;;;;;;;10.75;8.75;;;;;9.83;87.01;100748.56;5049932;28;9205;-78
2021/12/13 00:09:29;;;;;;;;;8.00;7.75;;;;;9.84;87.12;100747.59;5049145;28;8834;-78
2021/12/13 00:11:57;;;;;;;;;9.25;7.00;;;;;9.86;87.04;100756.38;5049567;28;8842;-78
2021/12/13 00:14:27;;;;;;;;;12.25;11.00;;;;;9.87;87.49;100747.44;5049480;28;9547;-78
2021/12/13 00:16:55;;;;;;;;;9.50;9.00;;;;;9.86;87.27;100745.72;5049266;28;8896;-78
2021/12/13 00:19:22;;;;;;;;;12.00;10.50;;;;;9.88;87.14;100746.47;5048263;28;8866;-78
2021/12/13 00:21:50;;;;;;;;;10.00;9.75;;;;;9.87;87.38;100745.59;5049701;28;8903;-78
2021/12/13 00:24:18;;;;;;;;;12.25;10.50;;;;;9.88;86.98;100749.13;5049404;28;8842;-78
2021/12/13 00:26:46;;;;;;;;;15.00;9.50;;;;;9.89;86.95;100734.88;5050343;28;9550;-78
2021/12/13 00:29:13;;;;;;;;;14.25;11.50;;;;;9.88;86.97;100741.16;5050093;28;8862;-78
2021/12/13 00:31:41;;;;;;;;;6.50;6.00;;;;;9.89;86.90;100746.38;5051428;28;8877;-78
2021/12/13 00:34:09;;;;;;;;;10.50;9.50;;;;;9.91;87.27;100748.94;5050533;28;8854;-78
2021/12/13 00:36:36;;;;;;;;;9.00;7.50;;;;;9.93;87.07;100747.03;5050558;28;8927;-78
2021/12/13 00:39:04;;;;;;;;;14.00;12.50;;;;;9.94;87.02;100746.09;5049246;28;8856;-78
2021/12/13 00:41:32;;;;;;;;;17.00;15.50;;;;;9.94;86.95;100746.09;5050026;28;8838;-79
2021/12/13 00:44:00;;;;;;;;;15.00;12.75;;;;;9.93;87.25;100755.88;5049574;28;8858;-78
2021/12/13 00:46:28;;;;;;;;;8.50;7.50;;;;;9.92;86.95;100748.84;5050018;28;8854;-78
2021/12/13 00:48:55;;;;;;;;;14.00;13.00;;;;;9.91;87.63;100749.78;5049241;28;8861;-79
2021/12/13 00:51:25;;;;;;;;;13.50;13.00;;;;;9.90;87.04;100753.41;5051122;28;8874;-78
2021/12/13 00:53:53;;;;;;;;;16.00;11.00;;;;;9.90;87.80;100758.72;5050795;28;8853;-78
2021/12/13 00:56:20;;;;;;;;;10.00;9.00;;;;;9.89;87.73;100754.38;5049574;28;8869;-78
2021/12/13 00:58:48;;;;;;;;;12.50;11.50;;;;;9.89;87.12;100741.06;5048781;28;8834;-78
2021/12/13 01:01:16;;;;;;;;;10.25;9.50;;;;;9.90;87.17;100748.09;5049382;28;8850;-78
2021/12/13 01:03:44;;;;;;;;;9.75;6.00;;;;;9.90;87.37;100758.72;5050888;28;8981;-78
2021/12/13 01:06:12;;;;;;;;;11.75;8.50;;;;;9.90;87.79;100752.53;5050247;28;8877;-78
2021/12/13 01:08:40;;;;;;;;;12.50;9.00;;;;;9.92;87.33;100761.28;5048362;28;8842;-78
2021/12/13 01:11:08;;;;;;;;;13.50;11.50;;;;;9.91;87.74;100755.13;5049232;28;8846;-78
2021/12/13 01:13:36;;;;;;;;;15.00;12.50;;;;;9.93;87.36;100761.19;5048061;28;8900;-78
2021/12/13 01:16:11;;;;;;;;;12.75;10.50;;;;;9.95;87.35;100761.09;5050421;28;9254;-78
2021/12/13 01:18:56;;;;;;;;;9.25;8.00;;;;;9.98;87.20;100760.88;5048670;28;8870;-79
2021/12/13 01:21:31;;;;;;;;;13.50;11.00;;;;;9.99;87.43;100768.78;5050064;28;9268;-78
2021/12/13 01:24:05;;;;;;;;;11.00;11.00;;;;;10.00;87.58;100767.81;5049808;28;8838;-78
2021/12/13 01:26:37;;;;;;;;;6.75;6.25;;;;;10.01;87.32;100774.84;5048866;28;8830;-78
2021/12/13 01:29:05;;;;;;;;;10.00;9.75;;;;;10.00;87.13;100769.63;5049941;28;9348;-78
2021/12/13 01:31:32;;;;;;;;;13.50;11.25;;;;;10.00;87.14;100778.47;5049651;28;9452;-79
2021/12/13 01:34:00;;;;;;;;;6.75;6.50;;;;;10.01;87.36;100774.00;5049367;28;8870;-78
2021/12/13 01:36:29;;;;;;;;;11.50;9.50;;;;;10.00;87.25;100766.97;5048330;28;8855;-78
2021/12/13 01:38:56;;;;;;;;;9.25;9.25;;;;;10.01;87.16;100772.19;5047609;28;8858;-78
2021/12/13 01:41:24;;;;;;;;;10.50;9.25;;;;;10.01;87.38;100772.19;5048699;28;8854;-78
2021/12/13 01:43:52;;;;;;;;;9.25;7.50;;;;;10.01;87.00;100779.34;5049177;28;8854;-78
2021/12/13 01:46:20;;;;;;;;;5.50;4.00;;;;;10.01;87.26;100772.19;5049938;28;8854;-79
2021/12/13 01:48:47;;;;;;;;;9.00;9.00;;;;;10.02;87.44;100776.56;5047938;28;8835;-78
2021/12/13 01:51:16;;;;;;;;;5.50;4.50;;;;;10.02;86.86;100781.03;5048645;28;9536;-78
2021/12/13 01:53:44;;;;;;;;;8.50;7.00;;;;;10.01;87.41;100777.50;5047246;28;9527;-79
2021/12/13 01:56:24;;;;;;;;;5.25;5.00;;;;;10.01;87.17;100790.81;5046784;28;8855;-78
2021/12/13 01:58:52;;;;;;;;;8.00;6.75;;;;;10.00;87.38;100789.09;5048149;28;8830;-78
2021/12/13 02:01:20;;;;;;;;;6.00;4.00;;;;;10.01;87.43;100793.47;5046495;28;8842;-79
2021/12/13 02:03:47;;;;;;;;;6.00;5.50;;;;;10.01;87.08;100788.16;5047648;28;8850;-79
2021/12/13 02:06:15;;;;;;;;;4.50;4.00;;;;;10.01;87.00;100793.47;5047981;28;8878;-78
2021/12/13 02:08:43;;;;;;;;;6.50;6.25;;;;;10.02;87.66;100792.53;5047267;28;8857;-79
2021/12/13 02:11:11;;;;;;;;;6.75;6.50;;;;;10.02;87.46;100797.00;5049530;28;8935;-79
2021/12/13 02:13:48;;;;;;;;;6.00;6.00;;;;;10.02;87.45;100797.84;5047822;28;8874;-78
2021/12/13 02:19:16;;;;;;;;;7.00;7.00;;;;;9.98;87.59;100798.13;4986276;28;8861;-78
2021/12/13 02:21:45;;;;;;;;;6.00;6.00;;;;;9.96;87.45;100805.38;4987037;28;8845;-78
2021/12/13 02:24:13;;;;;;;;;8.50;6.00;;;;;9.93;87.17;100803.75;5015103;28;8846;-79
2021/12/13 02:26:40;;;;;;;;;4.50;4.00;;;;;9.90;87.71;100809.28;5049126;28;8848;-78
2021/12/13 02:29:08;;;;;;;;;6.75;5.75;;;;;9.88;87.34;100803.19;5050019;28;8862;-80
2021/12/13 02:31:36;;;;;;;;;9.25;9.25;;;;;9.85;87.40;100808.69;5049430;28;8870;-77
2021/12/13 02:34:04;;;;;;;;;7.75;6.50;;;;;9.85;87.73;100807.84;5048334;28;8868;-78
2021/12/13 02:36:31;;;;;;;;;6.75;6.00;;;;;9.83;87.46;100809.75;5049028;28;9176;-78
2021/12/13 02:38:59;;;;;;;;;6.00;6.00;;;;;9.81;87.49;100804.50;5047426;28;8888;-78
2021/12/13 02:41:27;;;;;;;;;6.00;4.50;;;;;9.80;87.54;100805.47;5048517;28;8873;-78
2021/12/13 02:43:54;;;;;;;;;7.50;6.50;;;;;9.80;87.89;100813.44;5048636;28;9150;-78
2021/12/13 02:46:22;;;;;;;;;9.00;8.50;;;;;9.80;87.51;100809.94;5048189;28;8842;-78
2021/12/13 02:48:51;;;;;;;;;7.25;5.50;;;;;9.78;88.26;100807.38;5048778;28;9316;-78
2021/12/13 02:51:21;;;;;;;;;6.75;6.25;;;;;9.78;87.82;100804.72;5053943;28;9159;-78
2021/12/13 02:53:49;;;;;;;;;10.00;9.25;;;;;9.78;88.21;100801.22;5053544;28;8834;-79
2021/12/13 02:56:17;;;;;;;;;6.00;6.00;;;;;9.77;87.73;100802.16;5053498;28;8834;-79
2021/12/13 02:58:45;;;;;;;;;6.25;5.00;;;;;9.76;88.08;100809.28;5052694;28;8911;-78
2021/12/13 03:01:13;;;;;;;;;6.75;4.50;;;;;9.75;87.70;100802.25;5053279;28;8857;-78
2021/12/13 03:03:41;;;;;;;;;8.00;7.00;;;;;9.75;87.95;100809.38;5053404;28;8980;-78
2021/12/13 03:06:09;;;;;;;;;10.50;9.50;;;;;9.74;87.95;100805.88;5053483;28;8826;-79
2021/12/13 03:08:37;;;;;;;;;8.50;6.50;;;;;9.74;87.64;100807.66;5050872;28;8924;-80
2021/12/13 03:11:04;;;;;;;;;10.50;9.00;;;;;9.72;88.03;100807.75;5052025;28;8859;-78
2021/12/13 03:13:32;;;;;;;;;6.75;5.50;;;;;9.73;87.61;100808.63;5052523;28;8866;-78
2021/12/13 03:16:00;;;;;;;;;3.75;3.25;;;;;9.72;87.81;100807.75;5052648;28;8892;-78
2021/12/13 03:18:27;;;;;;;;;10.25;7.50;;;;;9.71;87.91;100806.03;5052332;28;8846;-78
2021/12/13 03:20:57;;;;;;;;;8.00;8.00;;;;;9.70;87.74;100807.00;5052015;28;8866;-78
2021/12/13 03:23:25;;;;;;;;;12.50;10.50;;;;;9.71;87.64;100799.91;5051334;28;9530;-80
2021/12/13 03:25:53;;;;;;;;;9.50;9.00;;;;;9.69;88.09;100804.44;5052199;28;9175;-79
2021/12/13 03:28:20;;;;;;;;;7.00;6.00;;;;;9.69;88.14;100807.97;5052349;28;8961;-79
2021/12/13 03:30:49;;;;;;;;;8.00;5.00;;;;;9.69;88.23;100810.63;5052188;28;8834;-79
2021/12/13 03:33:17;;;;;;;;;9.00;9.00;;;;;9.69;88.01;100809.75;5051419;28;8885;-79
2021/12/13 03:35:45;;;;;;;;;3.75;3.00;;;;;9.68;87.64;100805.38;5051360;28;8916;-79
2021/12/13 03:38:12;;;;;;;;;8.75;8.75;;;;;9.68;87.91;100810.69;5051369;28;8843;-79
2021/12/13 03:40:42;;;;;;;;;7.50;7.00;;;;;9.66;87.79;100813.44;5052015;28;8861;-79
2021/12/13 03:43:09;;;;;;;;;6.50;6.50;;;;;9.67;88.10;100817.84;5052460;28;8862;-79
2021/12/13 03:45:39;;;;;;;;;7.50;6.25;;;;;9.66;88.00;100817.94;5051664;28;8839;-79
2021/12/13 03:48:06;;;;;;;;;7.00;6.00;;;;;9.66;88.34;100813.44;5049304;28;9283;-79
2021/12/13 03:50:34;;;;;;;;;8.00;6.50;;;;;9.64;87.99;100820.66;5051911;28;8861;-79
2021/12/13 03:53:02;;;;;;;;;4.00;3.75;;;;;9.65;88.09;100821.53;5051757;28;8866;-80
2021/12/13 03:55:30;;;;;;;;;9.75;9.75;;;;;9.64;87.90;100828.66;5052472;28;8850;-78
2021/12/13 03:57:57;;;;;;;;;9.00;8.50;;;;;9.63;88.15;100824.28;5050738;28;8870;-79
2021/12/13 04:00:25;;;;;;;;;12.00;9.00;;;;;9.63;88.11;100823.44;5050751;28;8864;-79
2021/12/13 04:02:53;;;;;;;;;9.00;6.50;;;;;9.63;88.27;100831.44;5049945;28;8876;-79
2021/12/13 04:05:21;;;;;;;;;4.50;4.00;;;;;9.63;87.85;100828.75;5050062;28;8854;-79
2021/12/13 04:07:48;;;;;;;;;9.75;7.00;;;;;9.61;87.78;100823.53;5051748;28;8860;-79
2021/12/13 04:10:16;;;;;;;;;9.00;7.00;;;;;9.61;87.73;100825.31;5050351;28;9116;-79
2021/12/13 04:12:48;;;;;;;;;7.50;6.50;;;;;9.61;88.11;100830.63;5051894;28;9473;-78
2021/12/13 04:15:15;;;;;;;;;7.50;6.50;;;;;9.58;88.15;100826.34;5050919;28;8870;-79
2021/12/13 04:17:45;;;;;;;;;9.50;8.50;;;;;9.58;87.69;100821.03;5051191;28;8854;-79
2021/12/13 04:20:13;;;;;;;;;6.50;6.00;;;;;9.58;88.56;100826.34;5050361;28;8858;-79
2021/12/13 04:22:42;;;;;;;;;9.00;6.25;;;;;9.57;88.33;100824.66;5051581;28;8853;-79
2021/12/13 04:25:09;;;;;;;;;3.25;3.25;;;;;9.56;88.44;100838.91;5050912;28;8865;-79
2021/12/13 04:27:38;;;;;;;;;6.00;5.25;;;;;9.52;88.29;100821.44;5051102;28;8880;-79
2021/12/13 04:30:06;;;;;;;;;5.00;3.50;;;;;9.51;87.99;100832.16;5051421;28;8908;-78
2021/12/13 04:32:33;;;;;;;;;4.50;3.25;;;;;9.49;88.24;100829.59;5051325;28;8861;-79
2021/12/13 04:35:03;;;;;;;;;2.00;2.00;;;;;9.49;88.12;100832.25;5051514;28;9001;-79
2021/12/13 04:37:30;;;;;;;;;4.00;3.50;;;;;9.47;88.36;100836.81;5051984;28;8846;-79
2021/12/13 04:39:58;;;;;;;;;8.75;7.50;;;;;9.47;88.22;100839.47;5050708;28;9646;-78
2021/12/13 04:42:26;;;;;;;;;7.00;7.00;;;;;9.46;88.41;100842.22;5050852;28;8835;-78
2021/12/13 04:44:53;;;;;;;;;4.50;4.00;;;;;9.46;88.37;100845.75;5051099;28;8854;-78
2021/12/13 04:47:21;;;;;;;;;5.25;4.50;;;;;9.46;88.25;100847.53;5050839;28;8862;-78
2021/12/13 04:49:49;;;;;;;;;6.25;6.25;;;;;9.45;87.96;100846.69;5050939;28;8954;-78
2021/12/13 04:52:18;;;;;;;;;6.50;6.50;;;;;9.45;88.35;100852.00;5050916;28;8843;-78
2021/12/13 04:54:46;;;;;;;;;8.75;4.50;;;;;9.45;88.33;100852.00;5050064;28;8838;-78
2021/12/13 04:57:13;;;;;;;;;4.75;3.00;;;;;9.45;88.61;100845.81;5050144;28;8838;-78
2021/12/13 04:59:41;;;;;;;;;6.00;4.00;;;;;9.45;88.35;100851.13;5050347;28;8869;-78
2021/12/13 05:02:09;;;;;;;;;4.00;4.00;;;;;9.45;87.84;100856.47;5049863;28;8847;-78
2021/12/13 05:04:37;;;;;;;;;4.00;2.00;;;;;9.46;88.04;100852.84;5050314;28;9511;-78
2021/12/13 05:07:05;;;;;;;;;3.75;2.50;;;;;9.46;88.16;100853.72;5050135;28;9151;-79
2021/12/13 05:09:33;;;;;;;;;6.00;4.50;;;;;9.46;88.54;100853.72;5048848;28;9159;-79
2021/12/13 05:12:03;;;;;;;;;8.50;6.50;;;;;9.48;88.20;100854.47;5048768;28;8841;-78
2021/12/13 05:14:31;;;;;;;;;3.50;3.50;;;;;9.49;88.42;100855.34;5047552;28;9253;-78
2021/12/13 05:16:58;;;;;;;;;5.50;5.50;;;;;9.48;88.20;100857.13;5048133;28;8916;-78
2021/12/13 05:19:26;;;;;;;;;4.00;3.50;;;;;9.49;87.84;100858.84;5049684;28;8846;-78
2021/12/13 05:21:54;;;;;;;;;8.00;7.00;;;;;9.49;88.36;100864.16;5048785;28;8877;-78
2021/12/13 05:24:22;;;;;;;;;6.75;5.50;;;;;9.48;87.99;100854.47;5047859;28;8838;-78
2021/12/13 05:26:49;;;;;;;;;4.75;3.50;;;;;9.48;88.25;100865.09;5049116;28;8914;-78
2021/12/13 05:29:17;;;;;;;;;5.00;4.00;;;;;9.49;87.90;100865.97;5049669;28;8850;-78
2021/12/13 05:31:45;;;;;;;;;5.25;4.50;;;;;9.49;88.12;100866.81;5047424;28;8868;-78
2021/12/13 05:34:13;;;;;;;;;3.25;2.75;;;;;9.50;88.01;100857.03;5047606;28;8854;-78
2021/12/13 05:36:43;;;;;;;;;6.25;6.25;;;;;9.49;88.12;100866.81;5046049;28;9395;-78
2021/12/13 05:39:11;;;;;;;;;6.75;6.75;;;;;9.50;88.15;100854.38;5045984;28;8850;-78
2021/12/13 05:41:39;;;;;;;;;6.00;5.50;;;;;9.48;88.10;100851.81;5046856;28;9530;-78
2021/12/13 05:44:07;;;;;;;;;2.50;2.50;;;;;9.49;87.51;100856.16;5046442;28;8870;-78
2021/12/13 05:46:34;;;;;;;;;4.50;3.75;;;;;9.50;87.78;100852.56;5046967;28;8888;-78
2021/12/13 05:49:02;;;;;;;;;6.50;6.00;;;;;9.50;87.82;100862.38;5046239;28;8830;-78
2021/12/13 05:51:30;;;;;;;;;4.00;1.00;;;;;9.48;87.37;100862.44;5048808;28;8838;-78
2021/12/13 05:53:58;;;;;;;;;6.50;6.50;;;;;9.48;88.13;100862.44;5049454;28;8852;-78
2021/12/13 05:56:25;;;;;;;;;4.00;3.00;;;;;9.48;87.63;100865.09;5045175;28;8870;-78
2021/12/13 05:58:53;;;;;;;;;6.50;4.00;;;;;9.48;87.76;100857.13;5044429;28;8862;-78
2021/12/13 06:01:21;;;;;;;;;8.00;6.00;;;;;9.48;87.95;100861.59;5045493;28;9586;-78
2021/12/13 06:03:49;;;;;;;;;4.00;3.50;;;;;9.47;87.47;100860.75;5046217;28;8842;-78
2021/12/13 06:06:17;;;;;;;;;5.00;4.50;;;;;9.48;87.59;100866.94;5046774;28;8858;-78
2021/12/13 06:08:48;;;;;;;;;3.00;1.00;;;;;9.47;87.76;100859.88;5046039;28;8854;-78
2021/12/13 06:11:16;;;;;;;;;4.50;4.00;;;;;9.47;87.74;100868.72;5045842;28;8862;-78
2021/12/13 06:13:43;;;;;;;;;6.00;5.50;;;;;9.47;88.07;100870.50;5045757;28;8955;-78
2021/12/13 06:16:11;;;;;;;;;9.75;7.00;;;;;9.48;87.87;100866.94;5044921;28;8854;-78
2021/12/13 06:18:39;;;;;;;;;6.50;5.50;;;;;9.48;87.39;100873.06;5043706;28;8870;-78
2021/12/13 06:21:07;;;;;;;;;8.00;7.50;;;;;9.48;87.44;100873.06;5044563;28;8913;-78
2021/12/13 06:23:35;;;;;;;;;3.00;3.00;;;;;9.48;87.53;100872.25;5042661;28;9247;-78
2021/12/13 06:26:03;;;;;;;;;3.25;3.00;;;;;9.49;87.82;100873.94;5048193;28;8830;-78
2021/12/13 06:28:30;;;;;;;;;6.00;4.50;;;;;9.49;87.85;100877.44;5045612;28;8846;-78
2021/12/13 06:30:58;;;;;;;;;4.50;3.50;;;;;9.49;87.35;100876.59;5045280;28;8893;-78
2021/12/13 06:33:26;;;;;;;;;7.00;6.25;;;;;9.49;87.63;100877.44;5045423;28;8870;-78
2021/12/13 06:35:54;;;;;;;;;4.50;3.00;;;;;9.50;88.08;100881.81;5045087;28;8861;-78
2021/12/13 06:38:22;;;;;;;;;6.00;4.00;;;;;9.50;87.71;100870.34;5046994;28;8850;-78
2021/12/13 06:40:50;;;;;;;;;5.00;4.00;;;;;9.50;87.37;100873.84;5045291;28;8852;-78
2021/12/13 06:43:18;;;;;;;;;7.25;6.25;;;;;9.51;87.43;100872.03;5047222;28;8873;-79
2021/12/13 06:45:45;;;;;;;;;8.50;6.00;;;;;9.51;87.87;100877.34;5045297;28;8870;-78
2021/12/13 06:48:13;;;;;;;;;4.50;4.50;;;;;9.50;87.87;100876.50;5043482;28;8888;-79
2021/12/13 06:50:41;;;;;;;;;6.25;6.25;;;;;9.50;87.66;100879.16;5045573;28;8858;-78
2021/12/13 06:53:09;;;;;;;;;12.50;9.50;;;;;9.50;87.54;100891.59;5044616;28;9444;-79
2021/12/13 06:55:36;;;;;;;;;7.75;6.50;;;;;9.50;87.56;100883.63;5045912;28;9716;-79
2021/12/13 06:58:04;;;;;;;;;7.00;6.00;;;;;9.50;87.57;100887.13;5044164;28;9175;-78
2021/12/13 07:00:32;;;;;;;;;7.25;7.25;;;;;9.50;87.52;100886.28;5040876;28;8851;-78
2021/12/13 07:03:00;;;;;;;;;6.50;6.25;;;;;9.50;87.64;100878.31;5041615;28;8885;-79
2021/12/13 07:05:29;;;;;;;;;9.75;9.25;;;;;9.50;87.37;100889.78;5040073;28;8846;-79
2021/12/13 07:07:56;;;;;;;;;10.00;10.00;;;;;9.49;87.19;100885.41;5038197;28;8861;-79
2021/12/13 07:10:24;;;;;;;;;7.50;6.75;;;;;9.48;87.33;100881.06;5038856;28;9729;-79
2021/12/13 07:12:52;;;;;;;;;7.00;5.00;;;;;9.46;87.70;100876.78;5040430;28;8870;-79
2021/12/13 07:15:19;;;;;;;;;3.75;2.50;;;;;9.47;87.81;100876.69;5037604;28;8889;-79
2021/12/13 07:17:48;;;;;;;;;7.25;5.00;;;;;9.48;87.27;100878.41;5038265;28;9160;-78
2021/12/13 07:20:15;;;;;;;;;10.50;9.50;;;;;9.47;87.53;100884.66;5035262;28;9125;-79
2021/12/13 07:22:43;;;;;;;;;8.00;6.50;;;;;9.48;87.24;100883.72;5036860;28;8980;-79
2021/12/13 07:25:11;;;;;;;;;7.00;6.50;;;;;9.47;87.20;100889.97;5034828;28;8988;-79
2021/12/13 07:27:39;;;;;;;;;18.00;15.00;;;;;9.48;87.26;100889.03;5035652;28;8972;-78
2021/12/13 07:30:06;;;;;;;;;14.50;12.25;;;;;9.47;87.41;100889.09;5036546;28;8874;-79
2021/12/13 07:32:34;;;;;;;;;11.50;7.00;;;;;9.48;87.25;100894.34;5034784;28;9111;-79
2021/12/13 07:35:02;;;;;;;;;4.00;3.25;;;;;9.48;87.62;100889.03;5035319;28;9543;-78
2021/12/13 07:37:30;;;;;;;;;9.50;9.00;;;;;9.50;87.49;100897.75;5038180;28;8843;-79
2021/12/13 07:39:58;;;;;;;;;8.50;8.50;;;;;9.49;87.60;100896.06;5036633;28;8873;-79
2021/12/13 07:42:26;;;;;;;;;6.50;6.00;;;;;9.49;87.12;100901.38;5040359;28;8935;-78
2021/12/13 07:44:53;;;;;;;;;12.50;11.00;;;;;9.49;87.17;100909.34;5041245;28;8875;-78
2021/12/13 07:47:21;;;;;;;;;9.00;9.00;;;;;9.51;87.11;100904.81;5042417;28;8854;-79
2021/12/13 07:49:49;;;;;;;;;9.00;7.00;;;;;9.52;86.95;100917.16;5043481;28;9237;-79
2021/12/13 07:52:17;;;;;;;;;4.25;3.25;;;;;9.52;87.62;100911.84;5038784;28;9180;-79
2021/12/13 07:54:45;;;;;;;;;4.00;4.00;;;;;9.51;87.07;100903.94;5038171;28;9140;-79
2021/12/13 07:57:13;;;;;;;;;8.25;7.00;;;;;9.51;87.21;100920.75;5042322;28;8858;-79
2021/12/13 07:59:40;;;;;;;;;8.50;7.00;;;;;9.52;87.63;100922.47;5040560;28;8862;-79
2021/12/13 08:02:08;;;;;;;;;7.25;6.75;;;;;9.53;87.44;100923.31;5040443;28;8874;-78
2021/12/13 08:04:36;;;;;;;;;6.50;6.00;;;;;9.52;87.60;100922.47;5039946;28;9129;-79
2021/12/13 08:07:04;;;;;;;;;8.25;6.00;;;;;9.54;87.34;100925.88;5038788;28;8855;-79
2021/12/13 08:09:32;;;;;;;;;9.25;8.00;;;;;9.56;87.01;100933.78;5039683;28;8896;-79
2021/12/13 08:12:00;;;;;;;;;6.00;5.00;;;;;9.55;86.56;100932.91;5040891;28;9217;-79
2021/12/13 08:14:28;;;;;;;;;6.75;5.50;;;;;9.57;87.13;100936.31;5039728;28;9009;-79
2021/12/13 08:16:55;;;;;;;;;5.00;4.50;;;;;9.58;86.99;100938.03;5040764;28;8854;-79
2021/12/13 08:19:23;;;;;;;;;5.00;5.00;;;;;9.60;86.76;100948.59;5040578;28;9496;-79
2021/12/13 08:21:51;;;;;;;;;7.00;6.00;;;;;9.60;86.96;100944.13;5043743;28;8974;-79
2021/12/13 08:24:18;;;;;;;;;6.00;6.00;;;;;9.60;86.82;100949.47;5038753;28;8932;-79
2021/12/13 08:26:46;;;;;;;;;8.00;5.75;;;;;9.60;86.57;100953.91;5039188;28;8854;-79
2021/12/13 08:29:14;;;;;;;;;6.50;6.50;;;;;9.61;86.68;100952.97;5039946;28;8920;-79
2021/12/13 08:31:42;;;;;;;;;8.00;6.50;;;;;9.61;86.78;100960.94;5037217;28;9178;-84
2021/12/13 08:34:10;;;;;;;;;6.00;6.00;;;;;9.60;86.53;100960.09;5036106;28;8866;-84
2021/12/13 08:36:39;;;;;;;;;7.50;6.75;;;;;9.60;86.48;100956.56;5038119;28;8858;-82
2021/12/13 08:39:06;;;;;;;;;9.25;8.50;;;;;9.60;86.72;100960.09;5035837;28;8908;-84
2021/12/13 08:41:34;;;;;;;;;6.75;6.25;;;;;9.60;86.26;100962.75;5037583;28;8846;-84
2021/12/13 08:44:02;;;;;;;;;6.00;5.50;;;;;9.60;86.33;100962.75;5040250;28;8882;-84
2021/12/13 08:46:30;;;;;;;;;11.00;9.00;;;;;9.59;86.96;100962.84;5040625;28;9128;-84
2021/12/13 08:48:58;;;;;;;;;8.00;6.50;;;;;9.59;86.63;100960.19;5037628;28;8855;-84
2021/12/13 08:51:25;;;;;;;;;2.00;1.00;;;;;9.59;86.74;100962.84;5040256;28;8862;-84
2021/12/13 08:53:54;;;;;;;;;9.00;7.25;;;;;9.59;86.77;100973.47;5037800;28;8861;-84
2021/12/13 08:56:23;;;;;;;;;7.50;6.75;;;;;9.60;86.78;100972.53;5033389;28;9170;-84
2021/12/13 08:58:51;;;;;;;;;7.00;5.75;;;;;9.62;86.51;100970.63;5038633;28;8993;-84
2021/12/13 09:01:19;;;;;;;;;6.00;6.00;;;;;9.63;86.63;100969.69;5036908;28;9525;-84
2021/12/13 09:03:47;;;;;;;;;9.00;7.00;;;;;9.64;86.73;100968.75;5036722;28;8858;-84
2021/12/13 09:06:15;;;;;;;;;6.25;6.25;;;;;9.64;86.34;100968.75;5037095;28;8974;-84
2021/12/13 09:08:42;;;;;;;;;8.00;8.00;;;;;9.66;86.08;100972.16;5034733;28;9555;-84
2021/12/13 09:11:12;;;;;;;;;10.50;7.00;;;;;9.67;86.33;100974.75;5034468;28;8870;-84
2021/12/13 09:13:40;;;;;;;;;6.25;6.00;;;;;9.68;86.30;100973.78;5037170;28;9210;-84
2021/12/13 09:16:08;;;;;;;;;10.00;9.00;;;;;9.70;86.23;100969.22;5034478;28;9151;-84
2021/12/13 09:18:36;;;;;;;;;6.25;5.00;;;;;9.70;86.10;100974.53;5037273;28;9229;-84
2021/12/13 09:21:03;;;;;;;;;8.50;6.00;;;;;9.72;86.11;100975.31;5037520;28;8850;-84
2021/12/13 09:23:31;;;;;;;;;5.50;4.50;;;;;9.73;86.15;100973.50;5036726;28;9526;-83
2021/12/13 09:25:59;;;;;;;;;9.00;8.00;;;;;9.74;86.31;100976.09;5037915;28;8981;-84
2021/12/13 09:28:27;;;;;;;;;4.00;4.00;;;;;9.76;85.93;100978.63;5036209;28;8862;-84
2021/12/13 09:30:54;;;;;;;;;2.00;2.00;;;;;9.76;85.77;100982.16;5037454;28;8870;-83
2021/12/13 09:33:23;;;;;;;;;5.00;5.00;;;;;9.77;86.26;100983.88;5039269;28;9193;-84
2021/12/13 09:35:50;;;;;;;;;9.00;6.25;;;;;9.77;86.20;100981.22;5037807;28;9524;-84
2021/12/13 09:38:18;;;;;;;;;6.50;6.00;;;;;9.77;85.68;100977.69;5039011;28;9543;-84
2021/12/13 09:40:46;;;;;;;;;5.00;5.00;;;;;9.77;86.03;100969.72;5036043;28;9130;-85
2021/12/13 09:43:14;;;;;;;;;6.50;6.00;;;;;9.77;85.57;100970.56;5037092;28;8967;-84
2021/12/13 09:45:41;;;;;;;;;7.00;6.00;;;;;9.78;85.49;100971.44;5038880;28;9163;-84
2021/12/13 09:48:09;;;;;;;;;9.75;6.00;;;;;9.77;86.09;100991.84;5034804;28;9555;-85
2021/12/13 09:50:37;;;;;;;;;7.00;6.00;;;;;9.79;86.15;100981.13;5032226;28;8918;-84
2021/12/13 09:53:05;;;;;;;;;9.75;6.00;;;;;9.79;85.76;100987.28;5038022;28;9500;-84
2021/12/13 09:55:33;;;;;;;;;5.00;4.50;;;;;9.79;86.02;100989.94;5036549;28;8884;-84
2021/12/13 09:58:02;;;;;;;;;4.00;4.00;;;;;9.81;85.96;100982.72;5039048;28;8878;-84
2021/12/13 10:00:30;;;;;;;;;4.00;3.00;;;;;9.82;85.26;100988.91;5036189;28;8895;-85
2021/12/13 10:02:58;;;;;;;;;4.50;4.00;;;;;9.83;85.44;100994.16;5035114;28;9213;-84
2021/12/13 10:05:26;;;;;;;;;7.50;6.50;;;;;9.83;85.62;100996.81;5036919;28;9215;-84
2021/12/13 10:07:54;;;;;;;;;6.00;5.50;;;;;9.84;85.65;100987.88;5035922;28;8866;-83
2021/12/13 10:10:22;;;;;;;;;5.50;4.50;;;;;9.85;85.55;100994.03;5034753;28;8894;-84
2021/12/13 10:12:50;;;;;;;;;6.75;6.00;;;;;9.85;85.76;100994.03;5035103;28;8865;-84
2021/12/13 10:15:18;;;;;;;;;7.00;7.00;;;;;9.85;85.69;100989.59;5029796;28;9132;-83
2021/12/13 10:17:46;;;;;;;;;7.00;6.00;;;;;9.85;85.29;100996.69;5032353;28;8985;-84
2021/12/13 10:20:14;;;;;;;;;6.50;6.50;;;;;9.85;85.36;101000.22;5033300;28;8854;-84
2021/12/13 10:22:41;;;;;;;;;5.50;5.00;;;;;9.87;85.64;101000.16;5031968;28;8862;-84
2021/12/13 10:25:09;;;;;;;;;6.50;6.50;;;;;9.87;85.82;100998.31;5034838;28;8896;-84
2021/12/13 10:27:37;;;;;;;;;7.75;6.50;;;;;9.87;85.63;100985.03;5034846;28;8863;-85
2021/12/13 10:30:05;;;;;;;;;6.25;6.25;;;;;9.86;85.30;100988.63;5030480;28;9104;-84
2021/12/13 10:32:33;;;;;;;;;2.00;2.00;;;;;9.86;85.39;100985.97;5032040;28;8951;-84
2021/12/13 10:35:00;;;;;;;;;6.00;4.00;;;;;9.85;85.39;100989.59;5032999;28;9349;-85
2021/12/13 10:37:28;;;;;;;;;6.25;6.00;;;;;9.84;85.67;100984.34;5031973;28;8862;-84
2021/12/13 10:39:56;;;;;;;;;3.00;3.00;;;;;9.86;84.93;100982.47;5030591;28;9151;-84
2021/12/13 10:42:24;;;;;;;;;5.50;5.50;;;;;9.86;85.08;100987.81;5032423;28;8865;-84
2021/12/13 10:44:55;;;;;;;;;8.25;8.25;;;;;9.87;85.71;100989.50;5033651;28;8874;-84
2021/12/13 10:47:22;;;;;;;;;3.00;3.00;;;;;9.86;85.42;100995.78;5032233;28;8947;-84
2021/12/13 10:49:50;;;;;;;;;5.00;4.00;;;;;9.86;85.55;100996.63;5031657;28;8830;-84
2021/12/13 10:52:18;;;;;;;;;7.00;6.25;;;;;9.87;85.28;100994.81;5035542;28;8901;-84
2021/12/13 10:54:46;;;;;;;;;6.00;6.00;;;;;9.87;84.92;101005.47;5035818;28;9363;-84
2021/12/13 10:57:14;;;;;;;;;4.50;4.50;;;;;9.87;85.10;100995.66;5030644;28;8858;-84
2021/12/13 10:59:42;;;;;;;;;5.50;5.50;;;;;9.87;85.51;101000.16;5032515;28;8881;-84
2021/12/13 11:02:10;;;;;;;;;4.50;4.50;;;;;9.87;85.58;100997.50;5034221;28;8928;-84
2021/12/13 11:04:41;;;;;;;;;8.00;8.00;;;;;9.86;85.04;100995.78;5032551;28;8914;-84
2021/12/13 11:07:09;;;;;;;;;3.75;3.00;;;;;9.87;84.93;100997.50;5030521;28;8854;-84
2021/12/13 11:09:36;;;;;;;;;6.00;5.75;;;;;9.85;85.53;100994.03;5032154;28;8854;-84
2021/12/13 11:12:04;;;;;;;;;4.00;4.00;;;;;9.85;85.47;100994.91;5034018;28;9298;-84
2021/12/13 11:14:32;;;;;;;;;4.00;4.00;;;;;9.85;85.00;100994.91;5039011;28;8870;-85
2021/12/13 11:17:00;;;;;;;;;1.00;1.00;;;;;9.86;85.32;100990.47;5038370;28;9292;-84
2021/12/13 11:19:28;;;;;;;;;6.00;6.00;;;;;9.85;84.81;100996.69;5037551;28;9275;-84
2021/12/13 11:22:01;;;;;;;;;4.50;4.50;;;;;9.85;84.96;100994.91;5035143;28;8862;-81
2021/12/13 11:24:28;;;;;;;;;7.25;6.25;;;;;9.86;85.03;100995.78;5034783;28;8878;-83
2021/12/13 11:26:57;;;;;;;;;8.25;7.50;;;;;9.85;85.15;100984.28;5037919;28;8917;-83
2021/12/13 11:29:25;;;;;;;;;7.00;7.00;;;;;9.87;85.32;101003.66;5031742;28;9274;-84
2021/12/13 11:31:53;;;;;;;;;5.75;5.00;;;;;9.86;85.41;100985.97;5038071;28;9163;-84
2021/12/13 11:34:24;;;;;;;;;7.50;6.25;;;;;9.84;85.36;100982.56;5036988;28;9251;-84
2021/12/13 11:36:52;;;;;;;;;7.50;7.00;;;;;9.85;84.85;100986.94;5036116;28;8980;-85
2021/12/13 11:39:20;;;;;;;;;7.50;7.50;;;;;9.85;85.01;100983.41;5031963;28;9176;-85
2021/12/13 11:41:49;;;;;;;;;1.00;1.00;;;;;9.86;84.92;100985.13;5036650;28;8866;-84
2021/12/13 11:44:18;;;;;;;;;11.50;10.00;;;;;9.86;85.06;100993.13;5031190;28;9182;-84
2021/12/13 11:46:46;;;;;;;;;5.50;5.00;;;;;9.87;85.18;100987.69;5032368;28;8877;-86